Time;durP1;ratioP1;P1;durP2;ratioP2;P2;SDS_P1;SDS_P2;PMS_P1;PMS_P2;Temp;Humidity;BMP_temperature;BMP_pressure;BME280_temperature;BME280_humidity;BME280_pressure;Samples;Min_cycle;Max_cycle;Signal;HPM_P1;HPM_P2
2021/09/11 00:02:25;;;;;;;10.93;4.55;;;;;;;19.58;48.73;99902.75;5058085;28;20024;-36
2021/09/11 00:04:50;;;;;;;9.23;4.40;;;;;;;19.63;48.98;99906.31;5067622;28;20017;-36
2021/09/11 00:07:16;;;;;;;6.93;4.32;;;;;;;19.66;48.59;99907.66;5064610;28;20131;-36
2021/09/11 00:09:41;;;;;;;7.28;4.70;;;;;;;19.52;49.56;99900.03;5059726;28;20061;-36
2021/09/11 00:12:07;;;;;;;9.00;4.30;;;;;;;19.48;49.10;99907.00;5070363;28;20047;-36
2021/09/11 00:14:33;;;;;;;9.07;4.80;;;;;;;19.43;49.05;99892.66;5058208;28;20020;-37
2021/09/11 00:16:58;;;;;;;7.85;4.22;;;;;;;19.49;49.50;99895.13;5063033;28;20040;-36
2021/09/11 00:19:24;;;;;;;9.93;4.63;;;;;;;19.52;48.68;99896.50;5054254;28;20028;-36
2021/09/11 00:21:49;;;;;;;10.65;4.95;;;;;;;19.60;49.28;99887.13;5069111;28;20384;-37
2021/09/11 00:24:15;;;;;;;10.70;4.70;;;;;;;19.55;49.47;99893.28;5074245;28;20025;-36
2021/09/11 00:26:40;;;;;;;7.43;4.80;;;;;;;19.56;49.81;99900.31;5068508;28;20032;-36
2021/09/11 00:29:06;;;;;;;10.15;4.90;;;;;;;19.47;49.58;99899.97;5062968;28;20495;-37
2021/09/11 00:31:31;;;;;;;8.95;5.00;;;;;;;19.50;49.23;99896.75;5061240;28;20025;-36
2021/09/11 00:33:57;;;;;;;9.80;5.00;;;;;;;19.49;49.36;99895.13;5069892;28;20023;-37
2021/09/11 00:36:22;;;;;;;11.63;5.88;;;;;;;19.48;49.53;99900.81;5054229;28;20058;-37
2021/09/11 00:38:48;;;;;;;11.75;6.22;;;;;;;19.48;49.38;99903.50;5060715;28;20028;-36
2021/09/11 00:41:13;;;;;;;15.00;6.75;;;;;;;19.47;49.18;99905.38;5063604;28;20024;-37
2021/09/11 00:43:46;;;;;;;14.55;7.20;;;;;;;19.37;50.20;99899.91;5067526;28;20024;-36
2021/09/11 00:46:12;;;;;;;117.25;72.18;;;;;;;19.13;50.71;99900.25;5056916;28;20028;-37
2021/09/11 00:48:37;;;;;;;31.80;20.20;;;;;;;19.02;51.14;99903.94;5061104;28;20017;-36
2021/09/11 00:51:03;;;;;;;18.45;8.55;;;;;;;19.10;50.83;99898.06;5064590;28;20549;-36
2021/09/11 00:53:28;;;;;;;16.13;7.30;;;;;;;19.18;50.42;99901.38;5065544;28;20028;-37
2021/09/11 00:55:54;;;;;;;13.60;6.82;;;;;;;19.16;50.13;99898.13;5057610;28;20028;-36
2021/09/11 00:58:19;;;;;;;16.08;6.43;;;;;;;19.19;50.00;99893.03;5068402;28;20453;-37
2021/09/11 01:00:45;;;;;;;14.75;6.65;;;;;;;19.07;50.03;99892.34;5059749;28;20373;-37
2021/09/11 01:03:11;;;;;;;11.68;6.18;;;;;;;19.00;50.01;99900.69;5062186;28;20021;-37
2021/09/11 01:05:37;;;;;;;10.80;5.85;;;;;;;18.98;49.71;99893.88;5066670;28;20016;-37
2021/09/11 01:08:03;;;;;;;9.15;5.25;;;;;;;18.97;49.92;99903.88;5056754;28;20028;-37
2021/09/11 01:10:29;;;;;;;9.32;5.20;;;;;;;19.12;49.84;99898.63;5051083;28;20044;-37
2021/09/11 01:12:54;;;;;;;8.82;5.10;;;;;;;19.18;49.09;99898.66;5060722;28;20032;-37
2021/09/11 01:15:29;;;;;;;7.68;5.00;;;;;;;19.20;49.19;99897.34;5060368;28;20028;-37
2021/09/11 01:17:55;;;;;;;9.57;4.82;;;;;;;19.22;49.43;99900.59;5036403;28;20027;-37
2021/09/11 01:20:20;;;;;;;7.97;4.60;;;;;;;19.21;49.57;99895.44;5068146;28;20021;-37
2021/09/11 01:22:46;;;;;;;8.90;5.05;;;;;;;19.23;49.05;99896.84;5059469;28;20031;-37
2021/09/11 01:25:11;;;;;;;8.82;5.03;;;;;;;19.23;48.55;99898.69;5072702;28;20408;-37
2021/09/11 01:27:37;;;;;;;9.25;4.68;;;;;;;19.09;49.28;99898.31;5059147;28;20024;-38
2021/09/11 01:30:05;;;;;;;8.93;5.30;;;;;;;19.09;49.44;99896.41;5068648;28;20016;-37
2021/09/11 01:32:31;;;;;;;12.23;5.18;;;;;;;19.12;50.14;99900.50;5057189;28;20016;-38
2021/09/11 01:34:56;;;;;;;7.65;4.68;;;;;;;19.05;49.69;99905.28;5064931;28;20087;-38
2021/09/11 01:37:22;;;;;;;8.50;4.78;;;;;;;19.06;50.26;99901.53;5064060;28;20423;-38
2021/09/11 01:39:48;;;;;;;10.38;4.90;;;;;;;19.07;50.12;99898.56;5072628;28;20025;-37
2021/09/11 01:42:23;;;;;;;7.57;4.80;;;;;;;18.94;50.50;99899.81;5055888;28;20032;-37
2021/09/11 01:44:52;;;;;;;9.27;4.88;;;;;;;18.86;49.92;99894.06;5047603;28;20397;-37
2021/09/11 01:47:18;;;;;;;7.25;4.30;;;;;;;18.92;50.07;99899.25;5056400;28;20028;-37
2021/09/11 01:49:43;;;;;;;7.93;4.63;;;;;;;18.95;49.84;99889.84;5065915;28;20032;-37
2021/09/11 01:52:09;;;;;;;8.75;4.70;;;;;;;18.92;50.81;99895.72;5055628;28;20025;-37
2021/09/11 01:54:35;;;;;;;9.00;4.97;;;;;;;18.63;50.21;99895.94;5067049;28;20060;-37
2021/09/11 01:57:00;;;;;;;9.93;4.65;;;;;;;18.67;50.09;99893.56;5060623;28;20024;-37
2021/09/11 01:59:26;;;;;;;8.43;5.13;;;;;;;18.58;50.48;99903.16;5060468;28;20017;-35
2021/09/11 02:01:51;;;;;;;12.20;4.95;;;;;;;18.16;51.27;99904.53;5067531;28;20028;-36
2021/09/11 02:04:16;;;;;;;6.53;4.78;;;;;;;18.30;51.18;99899.59;5055498;28;20021;-36
2021/09/11 02:06:42;;;;;;;5.63;4.57;;;;;;;18.29;50.94;99895.28;5066240;28;20025;-36
2021/09/11 02:09:07;;;;;;;9.20;4.60;;;;;;;18.36;50.80;99899.41;5059731;28;20504;-36
2021/09/11 02:11:33;;;;;;;10.80;4.70;;;;;;;18.37;50.53;99892.13;5058642;28;20028;-36
2021/09/11 02:13:58;;;;;;;7.72;4.72;;;;;;;18.42;50.23;99899.47;5068189;28;20024;-36
2021/09/11 02:16:24;;;;;;;6.82;4.50;;;;;;;18.47;50.19;99894.97;5040313;28;20028;-36
2021/09/11 02:18:49;;;;;;;7.68;4.72;;;;;;;18.33;51.22;99888.31;5064946;28;20021;-36
2021/09/11 02:21:15;;;;;;;9.48;4.97;;;;;;;18.36;50.47;99891.31;5062270;28;20017;-36
2021/09/11 02:23:40;;;;;;;7.15;4.85;;;;;;;18.13;50.37;99895.09;5057411;28;20032;-36
2021/09/11 02:26:05;;;;;;;10.25;5.22;;;;;;;18.32;50.40;99897.47;5067710;28;20025;-36
2021/09/11 02:28:31;;;;;;;11.30;5.10;;;;;;;18.32;50.32;99892.91;5055640;28;20065;-36
2021/09/11 02:30:56;;;;;;;7.72;4.78;;;;;;;18.32;50.30;99889.41;5063305;28;20024;-36
2021/09/11 02:33:22;;;;;;;6.60;4.63;;;;;;;18.33;51.20;99899.94;5062404;28;20511;-36
2021/09/11 02:35:47;;;;;;;7.18;4.80;;;;;;;18.34;50.10;99890.75;5056282;28;20047;-36
2021/09/11 02:38:13;;;;;;;9.52;5.00;;;;;;;18.32;50.40;99892.91;5067478;28;20029;-36
2021/09/11 02:40:38;;;;;;;7.43;4.43;;;;;;;18.17;50.63;99887.31;5056810;28;20074;-37
2021/09/11 02:43:03;;;;;;;6.40;4.28;;;;;;;18.23;50.13;99889.00;5061969;28;20021;-36
2021/09/11 02:45:29;;;;;;;6.63;4.13;;;;;;;18.18;50.32;99894.31;5052567;28;20024;-36
2021/09/11 02:47:54;;;;;;;5.20;4.20;;;;;;;18.16;50.33;99889.22;5055465;28;20021;-36
2021/09/11 02:50:20;;;;;;;6.05;4.05;;;;;;;18.08;50.10;99886.13;5061108;28;20053;-36
2021/09/11 02:52:45;;;;;;;10.48;4.50;;;;;;;18.09;50.07;99888.56;5064513;28;20017;-36
2021/09/11 02:55:11;;;;;;;5.80;4.10;;;;;;;18.08;50.26;99889.63;5060855;28;20435;-36
2021/09/11 02:57:36;;;;;;;7.82;4.15;;;;;;;18.00;50.50;99878.50;5057200;28;20036;-36
2021/09/11 03:00:03;;;;;;;6.30;4.30;;;;;;;18.05;50.44;99889.31;5067325;28;20032;-36
2021/09/11 03:02:28;;;;;;;7.20;4.40;;;;;;;17.98;50.29;99900.25;5054875;28;20033;-37
2021/09/11 03:04:54;;;;;;;6.40;4.40;;;;;;;17.98;51.17;99895.69;5063283;28;20523;-37
2021/09/11 03:07:19;;;;;;;6.25;4.10;;;;;;;18.05;50.21;99900.06;5062097;28;20029;-37
2021/09/11 03:09:44;;;;;;;7.03;4.10;;;;;;;17.97;50.44;99904.00;5055581;28;20505;-37
2021/09/11 03:12:10;;;;;;;8.93;4.57;;;;;;;17.85;50.85;99906.00;5067097;28;20021;-37
2021/09/11 03:14:35;;;;;;;7.28;4.47;;;;;;;17.70;51.84;99899.28;5055721;28;20020;-37
2021/09/11 03:17:01;;;;;;;8.73;4.70;;;;;;;17.74;51.41;99894.22;5058231;28;20029;-37
2021/09/11 03:19:26;;;;;;;7.15;4.20;;;;;;;17.87;50.95;99898.50;5050446;28;20025;-37
2021/09/11 03:21:52;;;;;;;6.85;4.18;;;;;;;17.63;50.86;99895.16;5066628;28;20028;-35
2021/09/11 03:24:17;;;;;;;5.38;4.30;;;;;;;17.67;50.81;99904.34;5067564;28;20035;-37
2021/09/11 03:26:42;;;;;;;6.43;4.03;;;;;;;17.76;50.62;99911.78;5056028;28;20032;-36
2021/09/11 03:29:08;;;;;;;6.88;4.15;;;;;;;17.80;50.77;99909.41;5066336;28;20025;-36
2021/09/11 03:31:33;;;;;;;8.20;3.97;;;;;;;17.83;50.33;99908.09;5063767;28;20032;-36
2021/09/11 03:34:00;;;;;;;6.55;4.18;;;;;;;17.78;50.24;99909.66;5054019;28;20028;-37
2021/09/11 03:36:25;;;;;;;6.43;4.13;;;;;;;17.67;50.63;99915.13;5067050;28;20017;-36
2021/09/11 03:38:51;;;;;;;6.97;4.20;;;;;;;17.48;51.00;99920.75;5057591;28;20151;-36
2021/09/11 03:41:16;;;;;;;9.02;4.43;;;;;;;17.24;51.23;99925.47;5060074;28;20036;-36
2021/09/11 03:43:42;;;;;;;9.75;4.78;;;;;;;17.41;51.26;99917.41;5064775;28;20024;-37
2021/09/11 03:46:07;;;;;;;10.70;4.97;;;;;;;17.44;51.64;99918.78;5053927;28;20021;-36
2021/09/11 03:48:33;;;;;;;6.20;4.45;;;;;;;17.26;52.08;99920.66;5058438;28;20035;-36
2021/09/11 03:50:58;;;;;;;10.68;4.30;;;;;;;17.32;50.90;99917.00;5062077;28;20021;-36
2021/09/11 03:53:24;;;;;;;8.07;4.50;;;;;;;17.53;51.04;99911.94;5062441;28;20035;-36
2021/09/11 03:55:50;;;;;;;7.53;4.97;;;;;;;17.54;50.80;99913.59;5055677;28;20071;-36
2021/09/11 03:58:15;;;;;;;10.10;5.15;;;;;;;17.59;51.49;99919.03;5067000;28;20055;-36
2021/09/11 04:00:40;;;;;;;10.57;5.28;;;;;;;17.46;51.93;99920.19;5055989;28;20021;-36
2021/09/11 04:03:06;;;;;;;9.23;5.18;;;;;;;17.64;50.83;99918.31;5070278;28;20016;-36
2021/09/11 04:05:31;;;;;;;9.90;5.63;;;;;;;17.64;51.30;99921.81;5070360;28;20043;-36
2021/09/11 04:07:57;;;;;;;11.00;5.50;;;;;;;17.71;51.01;99924.34;5035772;28;20091;-36
2021/09/11 04:10:22;;;;;;;9.32;5.20;;;;;;;17.74;50.72;99921.97;5066490;28;20037;-36
2021/09/11 04:12:48;;;;;;;11.27;5.72;;;;;;;17.90;50.83;99927.63;5056801;28;20028;-36
2021/09/11 04:15:13;;;;;;;13.38;5.63;;;;;;;18.03;50.73;99924.59;5059750;28;20021;-36
2021/09/11 04:17:39;;;;;;;13.15;5.60;;;;;;;18.12;50.39;99927.63;5050081;28;20025;-37
2021/09/11 04:20:05;;;;;;;39.28;24.75;;;;;;;18.28;50.02;99916.03;5066536;28;20492;-36
2021/09/11 04:22:30;;;;;;;22.92;14.70;;;;;;;18.52;49.32;99923.84;5054480;28;20166;-37
2021/09/11 04:24:56;;;;;;;10.90;6.47;;;;;;;18.65;48.85;99915.38;5062210;28;20087;-37
2021/09/11 04:27:21;;;;;;;28.40;17.58;;;;;;;18.60;49.13;99909.94;5061669;28;20032;-37
2021/09/11 04:29:47;;;;;;;11.82;6.40;;;;;;;18.85;48.66;99912.13;5055720;28;20021;-37
2021/09/11 04:32:12;;;;;;;11.85;4.78;;;;;;;19.03;47.84;99910.94;5051713;28;20113;-37
2021/09/11 04:34:37;;;;;;;7.13;5.18;;;;;;;19.28;46.92;99917.63;5064249;28;20040;-37
2021/09/11 04:37:03;;;;;;;10.80;5.35;;;;;;;19.56;47.06;99915.72;5058886;28;20029;-37
2021/09/11 04:39:29;;;;;;;14.52;10.65;;;;;;;19.70;47.46;99920.41;5059428;28;20554;-36
2021/09/11 04:41:54;;;;;;;21.60;12.82;;;;;;;19.80;46.18;99914.28;5068917;28;20027;-37
2021/09/11 04:44:19;;;;;;;18.25;9.68;;;;;;;19.60;46.74;99917.63;5070196;28;20079;-37
2021/09/11 04:46:45;;;;;;;22.42;14.57;;;;;;;19.83;46.81;99908.34;5057115;28;20107;-36
2021/09/11 04:49:10;;;;;;;18.13;11.85;;;;;;;20.20;45.92;99921.00;5052730;28;20033;-37
2021/09/11 04:51:36;;;;;;;13.68;7.63;;;;;;;20.51;44.17;99919.22;5066258;28;20044;-37
2021/09/11 04:54:01;;;;;;;10.45;6.00;;;;;;;20.91;43.76;99919.63;5055195;28;20544;-37
2021/09/11 04:56:27;;;;;;;12.02;7.38;;;;;;;21.00;43.94;99923.44;5068310;28;20025;-37
2021/09/11 04:58:52;;;;;;;10.52;4.80;;;;;;;21.18;42.68;99921.28;5052265;28;20500;-37
2021/09/11 05:01:18;;;;;;;9.60;5.18;;;;;;;21.61;41.69;99925.38;5063437;28;20394;-37
2021/09/11 05:03:43;;;;;;;10.80;5.28;;;;;;;21.82;40.46;99923.47;5057564;28;20491;-37
2021/09/11 05:06:09;;;;;;;16.60;11.13;;;;;;;22.20;39.96;99923.06;5068683;28;20408;-37
2021/09/11 05:08:35;;;;;;;12.63;8.48;;;;;;;22.45;40.00;99920.31;5057032;28;20066;-37
2021/09/11 05:11:00;;;;;;;21.58;15.15;;;;;;;23.05;38.79;99924.09;5064235;28;20473;-38
2021/09/11 05:13:26;;;;;;;15.23;10.98;;;;;;;23.43;37.80;99923.22;5064306;28;20082;-37
2021/09/11 05:15:51;;;;;;;8.50;6.32;;;;;;;23.71;37.92;99915.38;5056431;28;20028;-37
2021/09/11 05:18:17;;;;;;;12.70;6.32;;;;;;;23.94;36.48;99921.97;5068151;28;20033;-37
2021/09/11 05:20:42;;;;;;;8.70;5.05;;;;;;;24.18;35.46;99916.53;5056750;28;20086;-39
2021/09/11 05:23:07;;;;;;;15.95;8.68;;;;;;;24.65;35.09;99922.22;5062345;28;20481;-38
2021/09/11 05:25:33;;;;;;;9.95;5.57;;;;;;;24.79;34.37;99916.91;5053246;28;20048;-37
2021/09/11 05:27:58;;;;;;;10.80;4.97;;;;;;;25.17;33.61;99922.31;5068597;28;20032;-38
2021/09/11 05:30:24;;;;;;;7.57;4.50;;;;;;;25.32;34.15;99921.25;5055384;28;20021;-38
2021/09/11 05:32:49;;;;;;;7.95;3.53;;;;;;;25.15;33.47;99924.50;5064749;28;20040;-36
2021/09/11 05:35:15;;;;;;;8.38;3.38;;;;;;;25.06;33.66;99921.66;5051557;28;20441;-35
2021/09/11 05:37:40;;;;;;;5.82;3.35;;;;;;;25.42;33.54;99917.56;5065829;28;20024;-37
2021/09/11 05:40:06;;;;;;;9.73;6.15;;;;;;;25.83;32.87;99916.84;5055582;28;20029;-37
2021/09/11 05:42:35;;;;;;;7.82;6.60;;;;;;;26.24;32.25;99927.81;5071803;28;20024;-36
2021/09/11 05:45:00;;;;;;;6.85;3.70;;;;;;;26.45;31.91;99920.00;5071823;28;20059;-36
2021/09/11 05:47:26;;;;;;;17.67;7.15;;;;;;;26.75;31.54;99920.50;5059285;28;20052;-37
2021/09/11 05:49:51;;;;;;;6.20;3.30;;;;;;;26.91;30.93;99919.03;5066352;28;20028;-37
2021/09/11 05:52:17;;;;;;;4.53;2.80;;;;;;;27.36;29.92;99917.44;5054992;28;20032;-38
2021/09/11 05:54:42;;;;;;;6.97;3.67;;;;;;;27.63;29.60;99920.03;5065815;28;20017;-38
2021/09/11 05:57:07;;;;;;;15.30;5.75;;;;;;;27.97;30.02;99917.78;5058802;28;20027;-36
2021/09/11 05:59:33;;;;;;;6.00;3.22;;;;;;;28.48;28.53;99924.53;5048495;28;20021;-36
2021/09/11 06:01:58;;;;;;;7.57;3.40;;;;;;;28.55;28.10;99921.38;5034947;28;20476;-38
2021/09/11 06:04:24;;;;;;;7.88;4.65;;;;;;;28.97;27.08;99922.53;5063728;28;20427;-37
2021/09/11 06:06:49;;;;;;;17.42;12.70;;;;;;;29.38;26.53;99910.28;5048095;28;20046;-37
2021/09/11 06:09:15;;;;;;;9.70;4.43;;;;;;;29.55;26.34;99914.09;5071964;28;20660;-37
2021/09/11 06:11:40;;;;;;;6.18;3.35;;;;;;;29.49;27.03;99910.72;5057971;28;20021;-37
2021/09/11 06:14:05;;;;;;;8.35;3.47;;;;;;;29.61;26.85;99919.09;5067986;28;20086;-37
2021/09/11 06:16:31;;;;;;;10.75;4.20;;;;;;;29.67;26.34;99910.69;5054523;28;20021;-37
2021/09/11 06:18:57;;;;;;;4.50;3.08;;;;;;;29.47;26.44;99912.19;5062698;28;20087;-37
2021/09/11 06:21:23;;;;;;;4.35;2.90;;;;;;;29.91;25.79;99913.69;5053578;28;20028;-37
2021/09/11 06:23:48;;;;;;;6.43;3.10;;;;;;;28.55;27.00;99905.75;5065002;28;20491;-37
2021/09/11 06:26:13;;;;;;;7.50;3.50;;;;;;;27.77;28.41;99911.72;5052380;28;20017;-38
2021/09/11 06:28:39;;;;;;;7.68;3.05;;;;;;;27.27;28.89;99906.47;5062859;28;20032;-38
2021/09/11 06:31:04;;;;;;;19.23;12.88;;;;;;;27.06;29.80;99909.66;5049394;28;20497;-37
2021/09/11 06:33:30;;;;;;;12.85;5.53;;;;;;;27.11;29.78;99903.25;5061869;28;20369;-37
2021/09/11 06:35:55;;;;;;;8.73;3.63;;;;;;;27.23;29.54;99903.53;5052801;28;20079;-37
2021/09/11 06:38:21;;;;;;;6.35;3.58;;;;;;;27.46;29.50;99914.47;5065735;28;20123;-37
2021/09/11 06:40:46;;;;;;;5.07;3.60;;;;;;;27.47;29.45;99907.88;5057503;28;20025;-37
2021/09/11 06:43:11;;;;;;;5.25;3.60;;;;;;;27.58;29.04;99903.75;5060798;28;20032;-37
2021/09/11 06:45:37;;;;;;;5.72;3.70;;;;;;;27.48;29.37;99907.56;5064285;28;20465;-36
2021/09/11 06:48:03;;;;;;;7.03;3.75;;;;;;;27.38;29.12;99901.53;5053957;28;20028;-37
2021/09/11 06:50:28;;;;;;;6.25;3.70;;;;;;;26.87;30.27;99901.66;5065928;28;20039;-37
2021/09/11 06:52:54;;;;;;;9.90;4.40;;;;;;;27.03;30.57;99898.56;5057784;28;20016;-37
2021/09/11 06:55:19;;;;;;;4.60;3.40;;;;;;;27.81;29.69;99911.91;5058891;28;20047;-37
2021/09/11 06:57:45;;;;;;;5.93;3.45;;;;;;;27.80;29.62;99911.13;5065056;28;20051;-38
2021/09/11 07:00:11;;;;;;;7.38;3.55;;;;;;;27.87;29.64;99911.47;5052309;28;20021;-38
2021/09/11 07:02:36;;;;;;;5.00;3.10;;;;;;;27.60;29.53;99922.59;5055842;28;20098;-38
2021/09/11 07:05:02;;;;;;;4.38;2.95;;;;;;;27.54;29.77;99905.50;5060260;28;20239;-38
2021/09/11 07:07:27;;;;;;;6.20;3.33;;;;;;;28.32;28.73;99912.44;5050282;28;20052;-38
2021/09/11 07:09:52;;;;;;;7.32;2.75;;;;;;;28.94;27.91;99905.94;5065561;28;20048;-38
2021/09/11 07:12:18;;;;;;;5.53;3.28;;;;;;;28.81;28.38;99908.53;5050326;28;20033;-38
2021/09/11 07:14:44;;;;;;;6.43;3.00;;;;;;;28.87;27.50;99909.16;5056585;28;20029;-38
2021/09/11 07:17:09;;;;;;;5.90;4.10;;;;;;;28.80;27.64;99909.63;5062828;28;20021;-38
2021/09/11 07:19:35;;;;;;;6.63;2.97;;;;;;;28.85;26.79;99906.75;5063101;28;20016;-38
2021/09/11 07:22:00;;;;;;;6.18;2.60;;;;;;;30.18;25.44;99904.19;5053237;28;20036;-37
2021/09/11 07:24:26;;;;;;;7.65;2.90;;;;;;;29.62;26.06;99896.03;5066926;28;20017;-37
2021/09/11 07:26:51;;;;;;;3.65;2.75;;;;;;;28.97;26.52;99897.88;5057173;28;20055;-37
2021/09/11 07:29:16;;;;;;;6.07;3.00;;;;;;;29.05;26.96;99904.47;5053943;28;20074;-38
2021/09/11 07:31:42;;;;;;;4.57;3.00;;;;;;;28.90;27.11;99900.31;5051309;28;20433;-38
2021/09/11 07:34:07;;;;;;;7.57;2.88;;;;;;;28.69;27.77;99902.88;5052415;28;20021;-38
2021/09/11 07:36:33;;;;;;;5.40;2.90;;;;;;;28.69;28.19;99899.31;5051693;28;20028;-37
2021/09/11 07:38:58;;;;;;;8.32;3.20;;;;;;;28.87;28.01;99900.16;5051449;28;20017;-37
2021/09/11 07:41:24;;;;;;;4.82;2.72;;;;;;;28.82;27.47;99890.16;5051354;28;20028;-37
2021/09/11 07:43:49;;;;;;;5.65;2.83;;;;;;;28.80;27.61;99895.16;5051865;28;20009;-37
2021/09/11 07:46:15;;;;;;;5.53;2.90;;;;;;;28.59;28.16;99889.50;5051481;28;20460;-38
2021/09/11 07:48:40;;;;;;;3.33;2.72;;;;;;;28.87;27.47;99891.94;5049001;28;20037;-38
2021/09/11 07:51:06;;;;;;;5.03;2.97;;;;;;;28.97;27.03;99886.13;5050798;28;20029;-38
2021/09/11 07:53:31;;;;;;;5.80;3.70;;;;;;;29.16;27.13;99878.38;5049891;28;20104;-38
2021/09/11 07:55:58;;;;;;;9.10;3.30;;;;;;;29.13;27.17;99873.56;5050455;28;20025;-38
2021/09/11 07:58:23;;;;;;;8.07;3.40;;;;;;;29.17;27.31;99881.97;5034790;28;20020;-38
2021/09/11 08:00:49;;;;;;;6.90;3.05;;;;;;;29.19;27.74;99876.97;5056607;28;20016;-38
2021/09/11 08:03:14;;;;;;;5.45;2.75;;;;;;;29.43;27.41;99877.22;5058991;28;20024;-38
2021/09/11 08:05:40;;;;;;;6.00;2.92;;;;;;;29.58;27.35;99877.81;5063537;28;20541;-38
2021/09/11 08:08:05;;;;;;;4.38;3.13;;;;;;;29.68;26.98;99871.94;5053377;28;20102;-38
2021/09/11 08:10:31;;;;;;;8.07;3.30;;;;;;;29.84;26.85;99869.53;5064888;28;20099;-38
2021/09/11 08:12:56;;;;;;;6.68;3.10;;;;;;;29.95;25.39;99867.19;5058400;28;20028;-37
2021/09/11 08:15:22;;;;;;;6.63;2.90;;;;;;;29.85;26.45;99865.63;5057583;28;20036;-37
2021/09/11 08:17:47;;;;;;;4.78;3.10;;;;;;;29.71;26.88;99862.28;5067978;28;20017;-38
2021/09/11 08:20:13;;;;;;;4.68;2.70;;;;;;;30.15;26.05;99860.16;5055225;28;20488;-35
2021/09/11 08:22:39;;;;;;;5.05;3.00;;;;;;;29.89;25.77;99847.41;5067855;28;20024;-37
2021/09/11 08:25:05;;;;;;;6.97;3.20;;;;;;;30.06;25.69;99859.38;5061892;28;20028;-38
2021/09/11 08:27:31;;;;;;;8.02;3.70;;;;;;;30.32;25.15;99862.00;5059445;28;20025;-37
2021/09/11 08:29:56;;;;;;;7.72;3.40;;;;;;;30.43;24.92;99857.75;5054874;28;20055;-38
2021/09/11 08:32:22;;;;;;;5.32;3.17;;;;;;;30.52;25.16;99850.25;5071649;28;20042;-37
2021/09/11 08:34:47;;;;;;;8.82;3.20;;;;;;;30.34;25.55;99843.28;5065865;28;20071;-37
2021/09/11 08:37:13;;;;;;;4.53;2.78;;;;;;;30.18;24.54;99841.09;5063580;28;20529;-36
2021/09/11 08:39:38;;;;;;;5.40;2.80;;;;;;;29.73;25.83;99841.66;5059039;28;20021;-38
2021/09/11 08:42:04;;;;;;;5.15;2.75;;;;;;;30.11;25.50;99846.28;5053791;28;20523;-37
2021/09/11 08:44:30;;;;;;;6.53;2.70;;;;;;;29.95;24.57;99839.75;5068526;28;20103;-38
2021/09/11 08:46:56;;;;;;;6.40;2.80;;;;;;;29.67;25.21;99840.19;5056444;28;20437;-38
2021/09/11 08:49:22;;;;;;;6.38;2.78;;;;;;;29.73;25.40;99838.13;5064584;28;20029;-38
2021/09/11 08:51:47;;;;;;;4.85;2.33;;;;;;;29.73;24.79;99833.41;5057877;28;20053;-38
2021/09/11 08:54:18;;;;;;;6.47;2.60;;;;;;;30.08;25.36;99829.69;5068955;28;20082;-37
2021/09/11 08:56:44;;;;;;;4.40;2.70;;;;;;;30.10;25.81;99832.91;5058245;28;20025;-38
2021/09/11 08:59:16;;;;;;;3.55;2.42;;;;;;;30.29;24.81;99821.47;5061839;28;20048;-37
2021/09/11 09:01:43;;;;;;;8.40;2.60;;;;;;;30.31;24.50;99820.03;5066859;28;20020;-38
2021/09/11 09:04:08;;;;;;;5.50;2.70;;;;;;;30.34;24.15;99818.56;5055848;28;20116;-38
2021/09/11 09:06:34;;;;;;;5.05;3.40;;;;;;;30.11;23.68;99818.06;5067619;28;20421;-38
2021/09/11 09:09:03;;;;;;;6.68;3.17;;;;;;;30.18;23.43;99816.38;5060789;28;20470;-37
2021/09/11 09:11:29;;;;;;;4.25;2.80;;;;;;;30.20;24.17;99810.56;5060123;28;20134;-39
2021/09/11 09:14:11;;;;;;;6.28;2.80;;;;;;;30.23;24.06;99809.09;5068325;28;20547;-36
2021/09/11 09:16:43;;;;;;;8.95;2.88;;;;;;;30.35;23.67;99810.00;5056547;28;20025;-38
2021/09/11 09:19:30;;;;;;;3.85;2.63;;;;;;;29.90;23.45;99804.31;5062654;28;20394;-38
2021/09/11 09:22:00;;;;;;;4.63;2.80;;;;;;;30.59;22.14;99803.03;5069139;28;20108;-38
2021/09/11 09:24:36;;;;;;;3.80;2.70;;;;;;;30.56;21.68;99798.22;5037200;28;20090;-39
2021/09/11 09:27:03;;;;;;;6.38;2.67;;;;;;;31.20;21.67;99790.66;5063513;28;20025;-38
2021/09/11 09:29:29;;;;;;;3.55;2.47;;;;;;;32.00;21.00;99795.59;5064247;28;20044;-37
2021/09/11 09:31:56;;;;;;;4.10;2.60;;;;;;;32.66;21.00;99785.38;5055438;28;20033;-37
2021/09/11 09:34:31;;;;;;;6.95;2.85;;;;;;;32.90;20.86;99789.94;5068279;28;20021;-37
2021/09/11 09:36:58;;;;;;;6.97;2.88;;;;;;;32.31;21.04;99772.97;5059664;28;20077;-38
2021/09/11 09:39:23;;;;;;;6.63;2.78;;;;;;;32.62;21.49;99777.00;5059905;28;20067;-37
2021/09/11 09:41:53;;;;;;;5.55;3.17;;;;;;;33.02;21.08;99784.38;5066902;28;20056;-38
2021/09/11 09:44:20;;;;;;;4.28;2.60;;;;;;;32.48;19.84;99780.16;5054863;28;20032;-38
2021/09/11 09:46:46;;;;;;;8.85;2.88;;;;;;;31.79;20.65;99781.97;5064850;28;20024;-37
2021/09/11 09:49:16;;;;;;;3.40;2.30;;;;;;;31.12;20.25;99781.34;5061319;28;20029;-37
2021/09/11 09:51:42;;;;;;;5.93;2.72;;;;;;;30.65;21.42;99774.22;5056378;28;20032;-38
2021/09/11 09:54:07;;;;;;;5.63;2.97;;;;;;;30.95;22.06;99774.91;5066670;28;20032;-37
2021/09/11 09:56:33;;;;;;;5.60;2.90;;;;;;;32.10;21.53;99775.09;5037621;28;20031;-38
2021/09/11 09:58:59;;;;;;;7.65;2.97;;;;;;;32.47;20.33;99767.50;5062859;28;20021;-38
2021/09/11 10:01:26;;;;;;;7.78;3.78;;;;;;;33.28;19.98;99763.78;5062842;28;20109;-38
2021/09/11 10:03:51;;;;;;;6.45;3.13;;;;;;;33.78;18.97;99772.50;5055414;28;20021;-38
2021/09/11 10:06:29;;;;;;;5.50;3.00;;;;;;;33.74;19.29;99764.13;5067581;28;20028;-38
2021/09/11 10:09:04;;;;;;;7.68;2.80;;;;;;;33.27;19.04;99768.50;5058634;28;20016;-36
2021/09/11 10:11:37;;;;;;;4.10;2.80;;;;;;;32.82;19.51;99766.13;5041573;28;20044;-37
2021/09/11 10:14:04;;;;;;;5.13;2.67;;;;;;;33.20;18.78;99762.00;5067441;28;20097;-38
2021/09/11 10:16:34;;;;;;;21.33;15.57;;;;;;;33.56;19.29;99755.41;5054136;28;20020;-38
2021/09/11 10:19:00;;;;;;;6.00;2.83;;;;;;;32.08;19.88;99745.19;5061928;28;20104;-38
2021/09/11 10:21:38;;;;;;;3.45;2.80;;;;;;;30.83;21.30;99744.63;5062873;28;20421;-38
2021/09/11 10:24:03;;;;;;;7.38;2.90;;;;;;;29.82;22.75;99740.94;5054594;28;20139;-38
2021/09/11 10:26:45;;;;;;;6.65;3.00;;;;;;;30.09;22.88;99738.03;5066539;28;20100;-37
2021/09/11 10:29:37;;;;;;;4.53;2.95;;;;;;;30.59;22.21;99729.69;5061537;28;20499;-38
2021/09/11 10:32:12;;;;;;;7.07;3.05;;;;;;;30.39;21.80;99725.84;5054418;28;20060;-36
2021/09/11 10:34:56;;;;;;;6.07;2.60;;;;;;;30.25;21.92;99708.81;5056740;28;20044;-37
2021/09/11 10:37:37;;;;;;;7.40;2.92;;;;;;;31.58;21.15;99729.88;5064485;28;20104;-36
2021/09/11 10:40:36;;;;;;;7.25;2.90;;;;;;;32.34;20.40;99730.16;5051539;28;20056;-36
2021/09/11 10:43:04;;;;;;;4.55;3.08;;;;;;;32.86;20.52;99729.25;5050952;28;20020;-38
2021/09/11 10:45:57;;;;;;;4.55;2.50;;;;;;;33.24;18.67;99727.88;5053863;28;20150;-38
2021/09/11 10:48:35;;;;;;;4.80;2.40;;;;;;;31.85;19.43;99722.03;5051112;28;20074;-38
2021/09/11 10:51:31;;;;;;;5.30;2.40;;;;;;;31.56;19.46;99727.44;5053440;28;20024;-38
2021/09/11 10:54:09;;;;;;;7.03;2.40;;;;;;;30.93;20.44;99715.97;5063728;28;20032;-38
2021/09/11 10:56:39;;;;;;;5.17;2.30;;;;;;;31.04;20.68;99716.34;5041805;28;20372;-38
2021/09/11 10:59:19;;;;;;;8.13;2.30;;;;;;;31.85;19.50;99709.06;5062082;28;20275;-38
2021/09/11 11:02:09;;;;;;;5.53;3.10;;;;;;;31.81;20.08;99708.16;5065886;28;20115;-38
2021/09/11 11:04:40;;;;;;;;;;;;;;;33.15;19.41;99701.63;5041287;28;20078;-38
2021/09/11 11:07:10;;;;;;;5.45;2.45;;;;;;;34.11;18.86;99704.97;5059994;28;20331;-38
2021/09/11 11:09:37;;;;;;;6.57;2.30;;;;;;;34.53;17.16;99699.50;5051054;28;20123;-38
2021/09/11 11:12:04;;;;;;;5.70;2.30;;;;;;;34.62;16.51;99694.53;5068070;28;20036;-38
2021/09/11 11:14:31;;;;;;;3.50;2.38;;;;;;;34.09;17.35;99692.31;5054915;28;20510;-38
2021/09/11 11:16:58;;;;;;;4.93;2.50;;;;;;;34.64;17.28;99683.13;5060090;28;20432;-38
2021/09/11 11:19:24;;;;;;;5.03;2.55;;;;;;;34.67;17.39;99687.94;5061918;28;20048;-38
2021/09/11 11:21:54;;;;;;;3.78;2.50;;;;;;;35.10;16.87;99677.63;5054749;28;20501;-38
2021/09/11 11:24:20;;;;;;;4.00;2.40;;;;;;;35.04;16.73;99677.13;5069647;28;20190;-38
2021/09/11 11:26:46;;;;;;;5.28;2.30;;;;;;;35.02;16.85;99675.91;5064135;28;20477;-37
2021/09/11 11:29:13;;;;;;;3.85;2.40;;;;;;;34.40;16.45;99675.97;5061024;28;20484;-38
2021/09/11 11:31:42;;;;;;;5.93;2.42;;;;;;;34.41;16.66;99670.09;5055361;28;20112;-38